sensor_id;sensor_type;location;lat;lon;timestamp;pressure;altitude;pressure_sealevel;temperature;humidity
43436;BME280;36399;51.444;-2.018;2023-07-31T00:00:31;100619.16;;;15.61;100.00
43436;BME280;36399;51.444;-2.018;2023-07-31T00:02:57;100617.38;;;15.60;100.00
43436;BME280;36399;51.444;-2.018;2023-07-31T00:05:23;100618.25;;;15.60;100.00
43436;BME280;36399;51.444;-2.018;2023-07-31T00:07:49;100611.19;;;15.59;100.00
43436;BME280;36399;51.444;-2.018;2023-07-31T00:10:15;100611.22;;;15.62;100.00
43436;BME280;36399;51.444;-2.018;2023-07-31T00:12:42;100605.91;;;15.65;100.00
43436;BME280;36399;51.444;-2.018;2023-07-31T00:15:09;100595.31;;;15.65;100.00
43436;BME280;36399;51.444;-2.018;2023-07-31T00:17:36;100582.06;;;15.68;100.00
43436;BME280;36399;51.444;-2.018;2023-07-31T00:20:02;100585.59;;;15.67;100.00
43436;BME280;36399;51.444;-2.018;2023-07-31T00:22:28;100570.59;;;15.69;100.00
43436;BME280;36399;51.444;-2.018;2023-07-31T00:24:56;100582.06;;;15.70;100.00
43436;BME280;36399;51.444;-2.018;2023-07-31T00:27:22;100595.28;;;15.71;100.00
43436;BME280;36399;51.444;-2.018;2023-07-31T00:29:48;100598.81;;;15.70;100.00
43436;BME280;36399;51.444;-2.018;2023-07-31T00:32:14;100602.31;;;15.74;100.00
43436;BME280;36399;51.444;-2.018;2023-07-31T00:34:40;100593.50;;;15.70;100.00
43436;BME280;36399;51.444;-2.018;2023-07-31T00:37:06;100588.22;;;15.70;100.00
43436;BME280;36399;51.444;-2.018;2023-07-31T00:39:33;100584.72;;;15.67;100.00
43436;BME280;36399;51.444;-2.018;2023-07-31T00:41:59;100578.53;;;15.68;100.00
43436;BME280;36399;51.444;-2.018;2023-07-31T00:44:25;100575.00;;;15.67;100.00
43436;BME280;36399;51.444;-2.018;2023-07-31T00:46:52;100565.31;;;15.66;100.00
43436;BME280;36399;51.444;-2.018;2023-07-31T00:49:20;100558.25;;;15.68;100.00
43436;BME280;36399;51.444;-2.018;2023-07-31T00:51:46;100545.88;;;15.70;100.00
43436;BME280;36399;51.444;-2.018;2023-07-31T00:54:12;100552.06;;;15.69;100.00
43436;BME280;36399;51.444;-2.018;2023-07-31T00:56:38;100554.69;;;15.69;100.00
43436;BME280;36399;51.444;-2.018;2023-07-31T00:59:06;100537.97;;;15.67;100.00
43436;BME280;36399;51.444;-2.018;2023-07-31T01:01:32;100539.69;;;15.70;100.00
43436;BME280;36399;51.444;-2.018;2023-07-31T01:03:58;100552.03;;;15.72;100.00
43436;BME280;36399;51.444;-2.018;2023-07-31T01:06:33;100553.81;;;15.72;100.00
43436;BME280;36399;51.444;-2.018;2023-07-31T01:09:19;100552.03;;;15.74;100.00
43436;BME280;36399;51.444;-2.018;2023-07-31T01:11:53;100552.91;;;15.74;100.00
43436;BME280;36399;51.444;-2.018;2023-07-31T01:14:21;100552.91;;;15.74;100.00
43436;BME280;36399;51.444;-2.018;2023-07-31T01:16:47;100547.59;;;15.74;100.00
43436;BME280;36399;51.444;-2.018;2023-07-31T01:19:14;100555.53;;;15.76;100.00
43436;BME280;36399;51.444;-2.018;2023-07-31T01:27:21;100514.97;;;15.74;100.00
43436;BME280;36399;51.444;-2.018;2023-07-31T01:32:39;100511.44;;;15.75;100.00
43436;BME280;36399;51.444;-2.018;2023-07-31T01:35:06;100515.81;;;15.77;100.00
43436;BME280;36399;51.444;-2.018;2023-07-31T01:37:32;100527.28;;;15.80;100.00
43436;BME280;36399;51.444;-2.018;2023-07-31T01:39:58;100520.22;;;15.78;100.00
43436;BME280;36399;51.444;-2.018;2023-07-31T01:42:24;100516.72;;;15.76;100.00
43436;BME280;36399;51.444;-2.018;2023-07-31T01:44:50;100519.34;;;15.80;100.00
43436;BME280;36399;51.444;-2.018;2023-07-31T01:47:16;100517.59;;;15.78;100.00
43436;BME280;36399;51.444;-2.018;2023-07-31T01:49:42;100506.09;;;15.80;100.00
43436;BME280;36399;51.444;-2.018;2023-07-31T01:52:08;100517.56;;;15.82;100.00
43436;BME280;36399;51.444;-2.018;2023-07-31T01:54:33;100515.78;;;15.82;100.00
43436;BME280;36399;51.444;-2.018;2023-07-31T01:56:59;100508.72;;;15.84;100.00
43436;BME280;36399;51.444;-2.018;2023-07-31T01:59:25;100519.31;;;15.83;100.00
43436;BME280;36399;51.444;-2.018;2023-07-31T02:01:51;100518.41;;;15.85;100.00
43436;BME280;36399;51.444;-2.018;2023-07-31T02:04:17;100517.50;;;15.86;100.00
43436;BME280;36399;51.444;-2.018;2023-07-31T02:06:43;100509.56;;;15.88;100.00
43436;BME280;36399;51.444;-2.018;2023-07-31T02:09:09;100513.97;;;15.89;100.00
43436;BME280;36399;51.444;-2.018;2023-07-31T02:11:35;100503.38;;;15.89;100.00
43436;BME280;36399;51.444;-2.018;2023-07-31T02:14:01;100512.19;;;15.91;100.00
43436;BME280;36399;51.444;-2.018;2023-07-31T02:16:27;100505.13;;;15.90;100.00
43436;BME280;36399;51.444;-2.018;2023-07-31T02:18:53;100511.31;;;15.90;100.00
43436;BME280;36399;51.444;-2.018;2023-07-31T02:21:19;100507.72;;;15.96;100.00
43436;BME280;36399;51.444;-2.018;2023-07-31T02:23:45;100515.72;;;15.90;100.00
43436;BME280;36399;51.444;-2.018;2023-07-31T02:26:10;100513.94;;;15.92;100.00
43436;BME280;36399;51.444;-2.018;2023-07-31T02:28:36;100514.81;;;15.94;100.00
43436;BME280;36399;51.444;-2.018;2023-07-31T02:31:03;100522.75;;;15.94;100.00
43436;BME280;36399;51.444;-2.018;2023-07-31T02:33:29;100512.16;;;15.94;100.00
43436;BME280;36399;51.444;-2.018;2023-07-31T02:35:54;100498.06;;;15.92;100.00
43436;BME280;36399;51.444;-2.018;2023-07-31T02:38:20;100496.28;;;15.92;100.00
43436;BME280;36399;51.444;-2.018;2023-07-31T02:40:46;100501.56;;;15.95;100.00
43436;BME280;36399;51.444;-2.018;2023-07-31T02:43:13;100487.44;;;15.95;100.00
43436;BME280;36399;51.444;-2.018;2023-07-31T02:45:39;100493.59;;;15.97;100.00
43436;BME280;36399;51.444;-2.018;2023-07-31T02:48:05;100504.19;;;15.95;100.00
43436;BME280;36399;51.444;-2.018;2023-07-31T02:50:33;100486.56;;;15.94;100.00
43436;BME280;36399;51.444;-2.018;2023-07-31T02:52:59;100479.50;;;15.93;100.00
43436;BME280;36399;51.444;-2.018;2023-07-31T02:55:24;100476.84;;;15.95;100.00
43436;BME280;36399;51.444;-2.018;2023-07-31T02:57:50;100490.06;;;15.96;100.00
43436;BME280;36399;51.444;-2.018;2023-07-31T03:00:18;100484.78;;;15.96;100.00
43436;BME280;36399;51.444;-2.018;2023-07-31T03:02:44;100493.56;;;16.00;100.00
43436;BME280;36399;51.444;-2.018;2023-07-31T03:05:10;100477.69;;;15.98;100.00
43436;BME280;36399;51.444;-2.018;2023-07-31T03:07:36;100483.91;;;15.96;100.00
43436;BME280;36399;51.444;-2.018;2023-07-31T03:10:02;100487.41;;;15.98;100.00
43436;BME280;36399;51.444;-2.018;2023-07-31T03:12:28;100488.28;;;16.00;100.00
43436;BME280;36399;51.444;-2.018;2023-07-31T03:14:54;100483.91;;;15.94;100.00
43436;BME280;36399;51.444;-2.018;2023-07-31T03:17:20;100484.75;;;15.98;100.00
43436;BME280;36399;51.444;-2.018;2023-07-31T03:19:46;100488.28;;;16.00;100.00
43436;BME280;36399;51.444;-2.018;2023-07-31T03:22:12;100496.25;;;15.97;100.00
43436;BME280;36399;51.444;-2.018;2023-07-31T03:24:37;100505.91;;;16.01;100.00
43436;BME280;36399;51.444;-2.018;2023-07-31T03:27:04;100524.47;;;15.98;100.00
43436;BME280;36399;51.444;-2.018;2023-07-31T03:29:30;100513.88;;;15.98;100.00
43436;BME280;36399;51.444;-2.018;2023-07-31T03:31:56;100514.75;;;15.98;100.00
43436;BME280;36399;51.444;-2.018;2023-07-31T03:34:22;100513.91;;;15.95;100.00
43436;BME280;36399;51.444;-2.018;2023-07-31T03:36:48;100508.56;;;15.99;100.00
43436;BME280;36399;51.444;-2.018;2023-07-31T03:39:14;100509.50;;;15.94;100.00
43436;BME280;36399;51.444;-2.018;2023-07-31T03:41:40;100516.59;;;15.92;100.00
43436;BME280;36399;51.444;-2.018;2023-07-31T03:44:06;100511.31;;;15.89;100.00
43436;BME280;36399;51.444;-2.018;2023-07-31T03:46:32;100522.78;;;15.91;100.00
43436;BME280;36399;51.444;-2.018;2023-07-31T03:48:59;100522.78;;;15.89;100.00
43436;BME280;36399;51.444;-2.018;2023-07-31T03:51:25;100513.13;;;15.85;100.00
43436;BME280;36399;51.444;-2.018;2023-07-31T03:53:51;100510.44;;;15.87;100.00
43436;BME280;36399;51.444;-2.018;2023-07-31T03:56:16;100510.47;;;15.84;100.00
43436;BME280;36399;51.444;-2.018;2023-07-31T03:58:42;100514.94;;;15.78;100.00
43436;BME280;36399;51.444;-2.018;2023-07-31T04:01:08;100517.59;;;15.78;100.00
43436;BME280;36399;51.444;-2.018;2023-07-31T04:03:34;100512.28;;;15.78;100.00
43436;BME280;36399;51.444;-2.018;2023-07-31T04:06:00;100515.81;;;15.77;100.00
43436;BME280;36399;51.444;-2.018;2023-07-31T04:08:26;100510.56;;;15.74;100.00
43436;BME280;36399;51.444;-2.018;2023-07-31T04:10:52;100503.44;;;15.80;100.00
43436;BME280;36399;51.444;-2.018;2023-07-31T04:13:18;100499.97;;;15.74;100.00
43436;BME280;36399;51.444;-2.018;2023-07-31T04:15:48;100495.56;;;15.73;100.00
43436;BME280;36399;51.444;-2.018;2023-07-31T04:18:15;100505.28;;;15.71;100.00
43436;BME280;36399;51.444;-2.018;2023-07-31T04:20:41;100492.06;;;15.71;100.00
43436;BME280;36399;51.444;-2.018;2023-07-31T04:23:07;100491.19;;;15.69;100.00
43436;BME280;36399;51.444;-2.018;2023-07-31T04:25:33;100488.56;;;15.66;100.00
43436;BME280;36399;51.444;-2.018;2023-07-31T04:28:00;100484.16;;;15.65;100.00
43436;BME280;36399;51.444;-2.018;2023-07-31T04:30:26;100483.28;;;15.63;100.00
43436;BME280;36399;51.444;-2.018;2023-07-31T04:32:52;100485.06;;;15.63;100.00
43436;BME280;36399;51.444;-2.018;2023-07-31T04:35:18;100475.34;;;15.60;100.00
43436;BME280;36399;51.444;-2.018;2023-07-31T04:37:44;100480.66;;;15.63;100.00
43436;BME280;36399;51.444;-2.018;2023-07-31T04:40:15;100474.50;;;15.61;100.00
43436;BME280;36399;51.444;-2.018;2023-07-31T04:42:41;100466.56;;;15.61;100.00
43436;BME280;36399;51.444;-2.018;2023-07-31T04:45:08;100461.25;;;15.61;100.00
43436;BME280;36399;51.444;-2.018;2023-07-31T04:47:34;100463.03;;;15.61;100.00
43436;BME280;36399;51.444;-2.018;2023-07-31T04:50:00;100454.19;;;15.56;100.00
43436;BME280;36399;51.444;-2.018;2023-07-31T04:52:26;100441.84;;;15.55;100.00
43436;BME280;36399;51.444;-2.018;2023-07-31T04:54:52;100440.97;;;15.54;100.00
43436;BME280;36399;51.444;-2.018;2023-07-31T04:57:18;100447.13;;;15.55;100.00
43436;BME280;36399;51.444;-2.018;2023-07-31T04:59:44;100440.09;;;15.58;100.00
43436;BME280;36399;51.444;-2.018;2023-07-31T05:02:12;100434.81;;;15.52;100.00
43436;BME280;36399;51.444;-2.018;2023-07-31T05:04:38;100431.25;;;15.56;100.00
43436;BME280;36399;51.444;-2.018;2023-07-31T05:07:04;100441.84;;;15.53;100.00
43436;BME280;36399;51.444;-2.018;2023-07-31T05:09:30;100431.28;;;15.53;100.00
43436;BME280;36399;51.444;-2.018;2023-07-31T05:11:56;100426.84;;;15.54;100.00
43436;BME280;36399;51.444;-2.018;2023-07-31T05:14:21;100413.63;;;15.52;100.00
43436;BME280;36399;51.444;-2.018;2023-07-31T05:16:47;100410.13;;;15.50;100.00
43436;BME280;36399;51.444;-2.018;2023-07-31T05:19:13;100408.34;;;15.52;100.00
43436;BME280;36399;51.444;-2.018;2023-07-31T05:21:40;100411.03;;;15.49;100.00
43436;BME280;36399;51.444;-2.018;2023-07-31T05:24:06;100402.19;;;15.50;100.00
43436;BME280;36399;51.444;-2.018;2023-07-31T05:26:32;100395.97;;;15.54;100.00
43436;BME280;36399;51.444;-2.018;2023-07-31T05:28:58;100386.31;;;15.52;100.00
43436;BME280;36399;51.444;-2.018;2023-07-31T05:31:24;100391.59;;;15.53;100.00
43436;BME280;36399;51.444;-2.018;2023-07-31T05:33:50;100390.66;;;15.57;100.00
43436;BME280;36399;51.444;-2.018;2023-07-31T05:36:17;100387.16;;;15.61;100.00
43436;BME280;36399;51.444;-2.018;2023-07-31T05:38:43;100381.88;;;15.61;100.00
43436;BME280;36399;51.444;-2.018;2023-07-31T05:41:12;100373.06;;;15.53;100.00
43436;BME280;36399;51.444;-2.018;2023-07-31T05:43:38;100367.78;;;15.53;100.00
43436;BME280;36399;51.444;-2.018;2023-07-31T05:46:03;100369.53;;;15.54;100.00
43436;BME280;36399;51.444;-2.018;2023-07-31T05:48:29;100370.38;;;15.59;100.00
43436;BME280;36399;51.444;-2.018;2023-07-31T05:50:55;100360.72;;;15.54;100.00
43436;BME280;36399;51.444;-2.018;2023-07-31T05:53:21;100362.44;;;15.56;100.00
43436;BME280;36399;51.444;-2.018;2023-07-31T05:55:47;100366.00;;;15.55;100.00
43436;BME280;36399;51.444;-2.018;2023-07-31T05:58:13;100373.94;;;15.58;100.00
43436;BME280;36399;51.444;-2.018;2023-07-31T06:00:39;100386.28;;;15.59;100.00
43436;BME280;36399;51.444;-2.018;2023-07-31T06:03:06;100378.31;;;15.56;100.00
43436;BME280;36399;51.444;-2.018;2023-07-31T06:05:32;100381.84;;;15.57;100.00
43436;BME280;36399;51.444;-2.018;2023-07-31T06:07:58;100381.00;;;15.61;100.00
43436;BME280;36399;51.444;-2.018;2023-07-31T06:10:24;100372.09;;;15.69;100.00
43436;BME280;36399;51.444;-2.018;2023-07-31T06:12:50;100353.50;;;15.75;100.00
43436;BME280;36399;51.444;-2.018;2023-07-31T06:15:16;100352.56;;;15.80;100.00
43436;BME280;36399;51.444;-2.018;2023-07-31T06:17:43;100356.88;;;15.90;100.00
43436;BME280;36399;51.444;-2.018;2023-07-31T06:20:09;100358.59;;;15.94;100.00
43436;BME280;36399;51.444;-2.018;2023-07-31T06:22:35;100353.16;;;16.06;100.00
43436;BME280;36399;51.444;-2.018;2023-07-31T06:25:02;100352.13;;;16.22;100.00
43436;BME280;36399;51.444;-2.018;2023-07-31T06:27:28;100352.97;;;16.24;100.00
43436;BME280;36399;51.444;-2.018;2023-07-31T06:29:54;100361.75;;;16.29;100.00
43436;BME280;36399;51.444;-2.018;2023-07-31T06:32:20;100355.47;;;16.36;100.00
43436;BME280;36399;51.444;-2.018;2023-07-31T06:34:46;100356.41;;;16.32;100.00
43436;BME280;36399;51.444;-2.018;2023-07-31T06:37:11;100363.28;;;16.46;100.00
43436;BME280;36399;51.444;-2.018;2023-07-31T06:39:37;100361.53;;;16.45;100.00
43436;BME280;36399;51.444;-2.018;2023-07-31T06:42:03;100356.19;;;16.49;100.00
43436;BME280;36399;51.444;-2.018;2023-07-31T06:44:29;100358.00;;;16.46;100.00
43436;BME280;36399;51.444;-2.018;2023-07-31T06:46:56;100350.03;;;16.47;100.00
43436;BME280;36399;51.444;-2.018;2023-07-31T06:49:21;100340.16;;;16.57;100.00
43436;BME280;36399;51.444;-2.018;2023-07-31T06:51:47;100333.03;;;16.65;100.00
43436;BME280;36399;51.444;-2.018;2023-07-31T06:54:13;100324.19;;;16.63;100.00
43436;BME280;36399;51.444;-2.018;2023-07-31T06:56:39;100305.66;;;16.66;100.00
43436;BME280;36399;51.444;-2.018;2023-07-31T06:59:05;100310.00;;;16.70;100.00
43436;BME280;36399;51.444;-2.018;2023-07-31T07:01:31;100304.72;;;16.64;100.00
43436;BME280;36399;51.444;-2.018;2023-07-31T07:03:57;100301.13;;;16.74;100.00
43436;BME280;36399;51.444;-2.018;2023-07-31T07:06:23;100292.41;;;16.66;100.00
43436;BME280;36399;51.444;-2.018;2023-07-31T07:08:49;100302.09;;;16.67;100.00
43436;BME280;36399;51.444;-2.018;2023-07-31T07:11:15;100287.97;;;16.62;100.00
43436;BME280;36399;51.444;-2.018;2023-07-31T07:13:40;100275.63;;;16.61;100.00
43436;BME280;36399;51.444;-2.018;2023-07-31T07:16:06;100263.25;;;16.66;100.00
43436;BME280;36399;51.444;-2.018;2023-07-31T07:18:32;100246.44;;;16.67;100.00
43436;BME280;36399;51.444;-2.018;2023-07-31T07:20:58;100226.94;;;16.71;100.00
43436;BME280;36399;51.444;-2.018;2023-07-31T07:23:27;100203.81;;;16.79;100.00
43436;BME280;36399;51.444;-2.018;2023-07-31T07:25:53;100182.47;;;16.87;100.00
43436;BME280;36399;51.444;-2.018;2023-07-31T07:28:19;100162.41;;;16.74;100.00
43436;BME280;36399;51.444;-2.018;2023-07-31T07:30:45;100150.84;;;16.76;100.00
43436;BME280;36399;51.444;-2.018;2023-07-31T07:33:11;100129.44;;;16.88;100.00
43436;BME280;36399;51.444;-2.018;2023-07-31T07:35:38;100122.03;;;17.06;100.00
43436;BME280;36399;51.444;-2.018;2023-07-31T07:38:03;100093.63;;;17.11;100.00
43436;BME280;36399;51.444;-2.018;2023-07-31T07:40:29;100057.97;;;17.27;100.00
43436;BME280;36399;51.444;-2.018;2023-07-31T07:42:55;100045.44;;;17.33;100.00
43436;BME280;36399;51.444;-2.018;2023-07-31T07:45:21;100035.94;;;17.23;100.00
43436;BME280;36399;51.444;-2.018;2023-07-31T07:47:47;100026.66;;;17.43;100.00
43436;BME280;36399;51.444;-2.018;2023-07-31T07:50:13;100012.50;;;17.42;100.00
43436;BME280;36399;51.444;-2.018;2023-07-31T07:52:39;100000.97;;;17.45;100.00
43436;BME280;36399;51.444;-2.018;2023-07-31T07:55:05;99989.22;;;17.55;100.00
43436;BME280;36399;51.444;-2.018;2023-07-31T07:57:31;99979.47;;;17.55;100.00
43436;BME280;36399;51.444;-2.018;2023-07-31T07:59:57;99982.50;;;17.79;100.00
43436;BME280;36399;51.444;-2.018;2023-07-31T08:02:23;99975.22;;;17.87;100.00
43436;BME280;36399;51.444;-2.018;2023-07-31T08:04:49;99959.13;;;17.56;100.00
43436;BME280;36399;51.444;-2.018;2023-07-31T08:07:14;99959.91;;;17.59;100.00
43436;BME280;36399;51.444;-2.018;2023-07-31T08:09:40;99958.59;;;17.40;100.00
43436;BME280;36399;51.444;-2.018;2023-07-31T08:12:07;99973.91;;;17.29;100.00
43436;BME280;36399;51.444;-2.018;2023-07-31T08:14:33;99985.63;;;17.19;100.00
43436;BME280;36399;51.444;-2.018;2023-07-31T08:17:00;99994.72;;;17.06;100.00
43436;BME280;36399;51.444;-2.018;2023-07-31T08:19:26;99990.22;;;17.09;100.00
43436;BME280;36399;51.444;-2.018;2023-07-31T08:21:51;99984.84;;;17.12;100.00
43436;BME280;36399;51.444;-2.018;2023-07-31T08:24:17;99978.69;;;17.12;100.00
43436;BME280;36399;51.444;-2.018;2023-07-31T08:26:43;99970.44;;;17.25;100.00
43436;BME280;36399;51.444;-2.018;2023-07-31T08:29:12;99971.09;;;17.35;100.00
43436;BME280;36399;51.444;-2.018;2023-07-31T08:31:38;99954.28;;;17.36;100.00
43436;BME280;36399;51.444;-2.018;2023-07-31T08:34:03;99944.00;;;17.59;100.00
43436;BME280;36399;51.444;-2.018;2023-07-31T08:36:29;99928.66;;;17.74;100.00
43436;BME280;36399;51.444;-2.018;2023-07-31T08:38:55;99918.47;;;17.91;100.00
43436;BME280;36399;51.444;-2.018;2023-07-31T08:41:21;99914.81;;;17.95;100.00
43436;BME280;36399;51.444;-2.018;2023-07-31T08:43:48;99887.91;;;18.09;100.00
43436;BME280;36399;51.444;-2.018;2023-07-31T08:46:15;99874.03;;;18.30;100.00
43436;BME280;36399;51.444;-2.018;2023-07-31T08:48:42;99858.53;;;18.46;100.00
43436;BME280;36399;51.444;-2.018;2023-07-31T08:51:08;99866.72;;;18.69;100.00
43436;BME280;36399;51.444;-2.018;2023-07-31T08:53:36;99853.81;;;18.86;100.00
43436;BME280;36399;51.444;-2.018;2023-07-31T08:56:02;99852.56;;;18.38;100.00
43436;BME280;36399;51.444;-2.018;2023-07-31T08:58:31;99854.41;;;18.36;100.00
43436;BME280;36399;51.444;-2.018;2023-07-31T09:01:00;99842.66;;;18.43;100.00
43436;BME280;36399;51.444;-2.018;2023-07-31T09:03:27;99811.66;;;18.43;100.00
43436;BME280;36399;51.444;-2.018;2023-07-31T09:05:56;99808.22;;;18.69;100.00
43436;BME280;36399;51.444;-2.018;2023-07-31T09:08:22;99820.13;;;18.56;100.00
43436;BME280;36399;51.444;-2.018;2023-07-31T09:10:48;99796.66;;;18.41;100.00
43436;BME280;36399;51.444;-2.018;2023-07-31T09:13:17;99816.97;;;18.12;100.00
43436;BME280;36399;51.444;-2.018;2023-07-31T09:15:44;99832.56;;;18.24;100.00
43436;BME280;36399;51.444;-2.018;2023-07-31T09:18:11;99835.59;;;18.11;100.00
43436;BME280;36399;51.444;-2.018;2023-07-31T09:20:37;99829.25;;;18.16;100.00
43436;BME280;36399;51.444;-2.018;2023-07-31T09:23:08;99818.00;;;18.38;100.00
43436;BME280;36399;51.444;-2.018;2023-07-31T09:25:35;99782.81;;;18.59;100.00
43436;BME280;36399;51.444;-2.018;2023-07-31T09:30:28;99780.81;;;18.67;100.00
43436;BME280;36399;51.444;-2.018;2023-07-31T09:33:02;99790.63;;;18.65;100.00
43436;BME280;36399;51.444;-2.018;2023-07-31T09:35:31;99792.91;;;18.48;100.00
43436;BME280;36399;51.444;-2.018;2023-07-31T09:38:05;99791.53;;;18.35;100.00
43436;BME280;36399;51.444;-2.018;2023-07-31T09:40:36;99785.63;;;18.25;100.00
43436;BME280;36399;51.444;-2.018;2023-07-31T09:43:04;99794.75;;;18.15;100.00
43436;BME280;36399;51.444;-2.018;2023-07-31T09:45:34;99801.16;;;17.77;100.00
43436;BME280;36399;51.444;-2.018;2023-07-31T09:48:00;99796.03;;;17.69;100.00
43436;BME280;36399;51.444;-2.018;2023-07-31T09:50:26;99777.38;;;18.03;100.00
43436;BME280;36399;51.444;-2.018;2023-07-31T09:52:52;99788.47;;;18.17;100.00
43436;BME280;36399;51.444;-2.018;2023-07-31T09:55:19;99772.09;;;18.33;100.00
43436;BME280;36399;51.444;-2.018;2023-07-31T09:57:47;99789.41;;;18.46;100.00
43436;BME280;36399;51.444;-2.018;2023-07-31T10:00:15;99773.75;;;18.37;100.00
43436;BME280;36399;51.444;-2.018;2023-07-31T10:02:45;99774.47;;;18.42;100.00
43436;BME280;36399;51.444;-2.018;2023-07-31T10:05:13;99763.44;;;18.26;100.00
43436;BME280;36399;51.444;-2.018;2023-07-31T10:07:41;99767.06;;;18.23;100.00
43436;BME280;36399;51.444;-2.018;2023-07-31T10:10:08;99754.72;;;18.50;100.00
43436;BME280;36399;51.444;-2.018;2023-07-31T10:12:37;99769.91;;;18.76;100.00
43436;BME280;36399;51.444;-2.018;2023-07-31T10:15:04;99768.78;;;18.54;100.00
43436;BME280;36399;51.444;-2.018;2023-07-31T10:17:30;99790.44;;;18.42;100.00
43436;BME280;36399;51.444;-2.018;2023-07-31T10:19:58;99809.22;;;18.36;100.00
43436;BME280;36399;51.444;-2.018;2023-07-31T10:22:29;99822.97;;;18.19;100.00
43436;BME280;36399;51.444;-2.018;2023-07-31T10:24:58;99833.94;;;18.07;100.00
43436;BME280;36399;51.444;-2.018;2023-07-31T10:27:24;99855.28;;;18.04;100.00
43436;BME280;36399;51.444;-2.018;2023-07-31T10:29:52;99875.97;;;17.91;100.00
43436;BME280;36399;51.444;-2.018;2023-07-31T10:32:19;99862.59;;;17.95;100.00
43436;BME280;36399;51.444;-2.018;2023-07-31T10:34:46;99834.31;;;18.25;100.00
43436;BME280;36399;51.444;-2.018;2023-07-31T10:37:29;99843.41;;;18.48;100.00
43436;BME280;36399;51.444;-2.018;2023-07-31T10:40:07;99880.13;;;18.34;100.00
43436;BME280;36399;51.444;-2.018;2023-07-31T10:42:37;99888.19;;;17.98;100.00
43436;BME280;36399;51.444;-2.018;2023-07-31T10:45:06;99875.56;;;18.06;100.00
43436;BME280;36399;51.444;-2.018;2023-07-31T10:47:42;99862.28;;;18.06;100.00
43436;BME280;36399;51.444;-2.018;2023-07-31T10:50:18;99865.28;;;17.94;100.00
43436;BME280;36399;51.444;-2.018;2023-07-31T10:52:50;99871.25;;;18.02;100.00
43436;BME280;36399;51.444;-2.018;2023-07-31T10:55:41;99862.06;;;18.14;100.00
43436;BME280;36399;51.444;-2.018;2023-07-31T10:58:12;99843.50;;;17.81;100.00
43436;BME280;36399;51.444;-2.018;2023-07-31T11:00:43;99835.25;;;17.92;100.00
43436;BME280;36399;51.444;-2.018;2023-07-31T11:03:09;99823.22;;;17.79;100.00
43436;BME280;36399;51.444;-2.018;2023-07-31T11:05:53;99824.81;;;17.84;100.00
43436;BME280;36399;51.444;-2.018;2023-07-31T11:08:24;99826.78;;;17.78;100.00
43436;BME280;36399;51.444;-2.018;2023-07-31T11:11:07;99833.91;;;17.76;100.00
43436;BME280;36399;51.444;-2.018;2023-07-31T11:13:50;99812.84;;;17.68;100.00
43436;BME280;36399;51.444;-2.018;2023-07-31T11:16:24;99818.31;;;17.60;100.00
43436;BME280;36399;51.444;-2.018;2023-07-31T11:18:51;99807.63;;;17.63;100.00
43436;BME280;36399;51.444;-2.018;2023-07-31T11:21:21;99817.97;;;17.76;100.00
43436;BME280;36399;51.444;-2.018;2023-07-31T11:23:52;99791.31;;;17.80;100.00
43436;BME280;36399;51.444;-2.018;2023-07-31T11:26:19;99794.09;;;17.76;100.00
43436;BME280;36399;51.444;-2.018;2023-07-31T11:28:48;99780.50;;;17.86;100.00
43436;BME280;36399;51.444;-2.018;2023-07-31T11:31:17;99757.56;;;17.84;100.00
43436;BME280;36399;51.444;-2.018;2023-07-31T11:33:43;99764.88;;;17.76;100.00
43436;BME280;36399;51.444;-2.018;2023-07-31T11:36:17;99756.53;;;17.55;100.00
43436;BME280;36399;51.444;-2.018;2023-07-31T11:38:43;99753.31;;;17.44;100.00
43436;BME280;36399;51.444;-2.018;2023-07-31T11:41:09;99755.78;;;17.18;100.00
43436;BME280;36399;51.444;-2.018;2023-07-31T11:43:35;99762.66;;;17.25;100.00
43436;BME280;36399;51.444;-2.018;2023-07-31T11:46:02;99772.03;;;17.02;100.00
43436;BME280;36399;51.444;-2.018;2023-07-31T11:48:30;99788.16;;;16.93;100.00
43436;BME280;36399;51.444;-2.018;2023-07-31T11:51:03;99799.63;;;16.95;100.00
43436;BME280;36399;51.444;-2.018;2023-07-31T11:53:51;99822.19;;;16.75;100.00
43436;BME280;36399;51.444;-2.018;2023-07-31T11:56:18;99830.66;;;16.49;100.00
43436;BME280;36399;51.444;-2.018;2023-07-31T11:58:51;99835.25;;;16.40;100.00
43436;BME280;36399;51.444;-2.018;2023-07-31T12:01:20;99854.06;;;16.28;100.00
43436;BME280;36399;51.444;-2.018;2023-07-31T12:03:47;99844.44;;;16.24;100.00
43436;BME280;36399;51.444;-2.018;2023-07-31T12:06:13;99850.72;;;16.19;100.00
43436;BME280;36399;51.444;-2.018;2023-07-31T12:08:39;99860.53;;;16.12;100.00
43436;BME280;36399;51.444;-2.018;2023-07-31T12:11:07;99877.66;;;15.94;100.00
43436;BME280;36399;51.444;-2.018;2023-07-31T12:13:35;99899.88;;;15.86;100.00
43436;BME280;36399;51.444;-2.018;2023-07-31T12:16:03;99929.16;;;15.75;100.00
43436;BME280;36399;51.444;-2.018;2023-07-31T12:18:34;99923.97;;;15.69;100.00
43436;BME280;36399;51.444;-2.018;2023-07-31T12:21:02;99930.16;;;15.69;100.00
43436;BME280;36399;51.444;-2.018;2023-07-31T12:23:33;99929.38;;;15.60;100.00
43436;BME280;36399;51.444;-2.018;2023-07-31T12:26:09;99917.25;;;15.45;100.00
43436;BME280;36399;51.444;-2.018;2023-07-31T12:28:37;99920.00;;;15.39;100.00
43436;BME280;36399;51.444;-2.018;2023-07-31T12:31:04;99951.78;;;15.36;100.00
43436;BME280;36399;51.444;-2.018;2023-07-31T12:33:32;100002.88;;;15.38;100.00
43436;BME280;36399;51.444;-2.018;2023-07-31T12:36:01;100016.91;;;15.43;100.00
43436;BME280;36399;51.444;-2.018;2023-07-31T12:38:27;100024.91;;;15.40;100.00
43436;BME280;36399;51.444;-2.018;2023-07-31T12:40:53;99970.22;;;15.40;100.00
43436;BME280;36399;51.444;-2.018;2023-07-31T12:43:19;99948.09;;;15.46;100.00